This is the latest recevied weather packets stored in our database for station/object WA5KWK. If no packets are shown the sender has not sent any weather packets the latest 10 day(s).
| Time | Temp. | Humidity | Pressure | Rain* | Wind** | Luminosity | Snow |
|---|---|---|---|---|---|---|---|
| 1777774504 | 18.89° C | 70% | 1010.7 hPa | 0 mm | - | 33 W/m² | - |
| 1777774204 | 18.89° C | 70% | 1010.7 hPa | 0 mm | - | 40 W/m² | - |
| 1777767605 | 20° C | 69% | 1010.9 hPa | 0 mm | - | 171 W/m² | - |
| 1777766405 | 21.11° C | 67% | 1011 hPa | 0 mm | - | 385 W/m² | - |
| 1777765805 | 21.11° C | 66% | 1011 hPa | 0 mm | - | 297 W/m² | - |
| 1777765504 | 21.67° C | 66% | 1011.1 hPa | 0 mm | - | 432 W/m² | - |
| 1777764005 | 22.22° C | 63% | 1011.4 hPa | 0 mm | - | 476 W/m² | - |
| 1777760105 | 22.22° C | 61% | 1012.1 hPa | 0 mm | - | 684 W/m² | - |
| 1777759505 | 22.22° C | 60% | 1012.2 hPa | 0 mm | - | 654 W/m² | - |
| 1777754105 | 22.22° C | 54% | 1012.6 hPa | 0 mm | - | 981 W/m² | - |
| 1777752605 | 21.67° C | 60% | 1012.8 hPa | 0 mm | - | 846 W/m² | - |
| 1777751405 | 21.67° C | 60% | 1012.9 hPa | 0 mm | - | 737 W/m² | - |
| 1777750505 | 21.67° C | 58% | 1012.9 hPa | 0 mm | - | 715 W/m² | - |
| 1777748105 | 22.22° C | 56% | 1012.7 hPa | 0 mm | - | 719 W/m² | - |
| 1777747504 | 22.22° C | 58% | 1013 hPa | 0 mm | - | 886 W/m² | - |
| 1777746905 | 21.67° C | 60% | 1013.2 hPa | 0 mm | - | 840 W/m² | - |
| 1777746605 | 21.67° C | 61% | 1013.3 hPa | 0 mm | - | 844 W/m² | - |
| 1777745704 | 21.11° C | 60% | 1013.3 hPa | 0 mm | - | 858 W/m² | - |
| 1777744805 | 21.11° C | 58% | 1013.2 hPa | 0 mm | - | 466 W/m² | - |
| 1777743904 | 21.67° C | 56% | 1013 hPa | 0 mm | - | 443 W/m² | - |
| 1777742704 | 21.67° C | 58% | 1012.9 hPa | 0 mm | - | 626 W/m² | - |
| 1777736105 | 20° C | 59% | 1012.6 hPa | 0 mm | - | 181 W/m² | - |
| 1777734004 | 19.44° C | 58% | 1012.4 hPa | 0 mm | - | 257 W/m² | - |
| 1777733405 | 18.89° C | 56% | 1012.5 hPa | 0 mm | - | 183 W/m² | - |
| 1777731005 | 17.78° C | 54% | 1012.2 hPa | 0 mm | - | 65 W/m² | - |
* Rain latest hour (hover to see other rain measurements)
** Current wind speed in m/s (hover to see current wind gust speed)